sensor_id;sensor_type;location;lat;lon;timestamp;temperature;humidity
34153;DHT22;20426;48.372;10.888;2023-04-06T00:00:02;2.70;91.10
34153;DHT22;20426;48.372;10.888;2023-04-06T00:00:35;2.70;90.90
34153;DHT22;20426;48.372;10.888;2023-04-06T00:01:05;2.70;90.90
34153;DHT22;20426;48.372;10.888;2023-04-06T00:01:36;2.70;90.90
34153;DHT22;20426;48.372;10.888;2023-04-06T00:02:07;2.70;90.90
34153;DHT22;20426;48.372;10.888;2023-04-06T00:02:38;2.70;90.80
34153;DHT22;20426;48.372;10.888;2023-04-06T00:03:08;2.70;90.90
34153;DHT22;20426;48.372;10.888;2023-04-06T00:03:39;2.70;90.90
34153;DHT22;20426;48.372;10.888;2023-04-06T00:04:10;2.70;90.80
34153;DHT22;20426;48.372;10.888;2023-04-06T00:04:41;2.70;90.80
34153;DHT22;20426;48.372;10.888;2023-04-06T00:05:11;2.70;90.80
34153;DHT22;20426;48.372;10.888;2023-04-06T00:05:42;2.70;90.90
34153;DHT22;20426;48.372;10.888;2023-04-06T00:06:13;2.70;90.90
34153;DHT22;20426;48.372;10.888;2023-04-06T00:06:44;2.70;90.90
34153;DHT22;20426;48.372;10.888;2023-04-06T00:07:14;2.70;91.00
34153;DHT22;20426;48.372;10.888;2023-04-06T00:07:45;2.70;91.00
34153;DHT22;20426;48.372;10.888;2023-04-06T00:08:16;2.70;91.00
34153;DHT22;20426;48.372;10.888;2023-04-06T00:08:47;2.70;91.00
34153;DHT22;20426;48.372;10.888;2023-04-06T00:09:18;2.80;91.00
34153;DHT22;20426;48.372;10.888;2023-04-06T00:09:48;2.80;91.00
34153;DHT22;20426;48.372;10.888;2023-04-06T00:10:20;2.80;91.00
34153;DHT22;20426;48.372;10.888;2023-04-06T00:10:51;2.80;91.00
34153;DHT22;20426;48.372;10.888;2023-04-06T00:11:22;2.80;90.90
34153;DHT22;20426;48.372;10.888;2023-04-06T00:11:53;2.80;91.00
34153;DHT22;20426;48.372;10.888;2023-04-06T00:12:23;2.80;91.20
34153;DHT22;20426;48.372;10.888;2023-04-06T00:12:54;2.80;91.00
34153;DHT22;20426;48.372;10.888;2023-04-06T00:13:27;2.80;91.00
34153;DHT22;20426;48.372;10.888;2023-04-06T00:13:58;2.80;90.90
34153;DHT22;20426;48.372;10.888;2023-04-06T00:14:28;2.80;90.90
34153;DHT22;20426;48.372;10.888;2023-04-06T00:14:59;2.80;90.90
34153;DHT22;20426;48.372;10.888;2023-04-06T00:15:31;2.80;90.90
34153;DHT22;20426;48.372;10.888;2023-04-06T00:16:02;2.80;91.00
34153;DHT22;20426;48.372;10.888;2023-04-06T00:16:35;2.80;91.00
34153;DHT22;20426;48.372;10.888;2023-04-06T00:17:06;2.80;91.00
34153;DHT22;20426;48.372;10.888;2023-04-06T00:17:37;2.80;91.00
34153;DHT22;20426;48.372;10.888;2023-04-06T00:18:07;2.80;91.00
34153;DHT22;20426;48.372;10.888;2023-04-06T00:18:39;2.80;91.00
34153;DHT22;20426;48.372;10.888;2023-04-06T00:19:09;2.80;91.00
34153;DHT22;20426;48.372;10.888;2023-04-06T00:19:40;2.80;91.10
34153;DHT22;20426;48.372;10.888;2023-04-06T00:20:11;2.80;91.10
34153;DHT22;20426;48.372;10.888;2023-04-06T00:20:42;2.80;91.20
34153;DHT22;20426;48.372;10.888;2023-04-06T00:21:13;2.80;91.20
34153;DHT22;20426;48.372;10.888;2023-04-06T00:21:45;2.80;91.20
34153;DHT22;20426;48.372;10.888;2023-04-06T00:22:16;2.80;91.10
34153;DHT22;20426;48.372;10.888;2023-04-06T00:22:46;2.80;91.20
34153;DHT22;20426;48.372;10.888;2023-04-06T00:23:17;2.80;91.20
34153;DHT22;20426;48.372;10.888;2023-04-06T00:23:48;2.80;91.10
34153;DHT22;20426;48.372;10.888;2023-04-06T00:24:19;2.80;91.10
34153;DHT22;20426;48.372;10.888;2023-04-06T00:24:49;2.80;91.00
34153;DHT22;20426;48.372;10.888;2023-04-06T00:25:20;2.80;91.30
34153;DHT22;20426;48.372;10.888;2023-04-06T00:25:51;2.80;91.10
34153;DHT22;20426;48.372;10.888;2023-04-06T00:26:22;2.80;91.10
34153;DHT22;20426;48.372;10.888;2023-04-06T00:26:53;2.70;91.10
34153;DHT22;20426;48.372;10.888;2023-04-06T00:27:24;2.80;91.20
34153;DHT22;20426;48.372;10.888;2023-04-06T00:27:55;2.70;91.10
34153;DHT22;20426;48.372;10.888;2023-04-06T00:28:26;2.70;91.10
34153;DHT22;20426;48.372;10.888;2023-04-06T00:28:56;2.70;91.10
34153;DHT22;20426;48.372;10.888;2023-04-06T00:29:29;2.70;91.20
34153;DHT22;20426;48.372;10.888;2023-04-06T00:29:59;2.70;91.20
34153;DHT22;20426;48.372;10.888;2023-04-06T00:30:30;2.70;91.10
34153;DHT22;20426;48.372;10.888;2023-04-06T00:31:01;2.70;91.40
34153;DHT22;20426;48.372;10.888;2023-04-06T00:31:32;2.70;91.20
34153;DHT22;20426;48.372;10.888;2023-04-06T00:32:02;2.60;91.20
34153;DHT22;20426;48.372;10.888;2023-04-06T00:32:34;2.60;91.20
34153;DHT22;20426;48.372;10.888;2023-04-06T00:33:05;2.70;91.20
34153;DHT22;20426;48.372;10.888;2023-04-06T00:33:36;2.70;91.20
34153;DHT22;20426;48.372;10.888;2023-04-06T00:34:07;2.60;91.20
34153;DHT22;20426;48.372;10.888;2023-04-06T00:34:38;2.60;91.20
34153;DHT22;20426;48.372;10.888;2023-04-06T00:35:08;2.70;91.20
34153;DHT22;20426;48.372;10.888;2023-04-06T00:35:39;2.70;91.30
34153;DHT22;20426;48.372;10.888;2023-04-06T00:36:10;2.60;91.30
34153;DHT22;20426;48.372;10.888;2023-04-06T00:36:41;2.70;91.30
34153;DHT22;20426;48.372;10.888;2023-04-06T00:37:12;2.70;91.20
34153;DHT22;20426;48.372;10.888;2023-04-06T00:37:43;2.60;91.20
34153;DHT22;20426;48.372;10.888;2023-04-06T00:38:14;2.60;91.20
34153;DHT22;20426;48.372;10.888;2023-04-06T00:38:45;2.60;91.20
34153;DHT22;20426;48.372;10.888;2023-04-06T00:39:16;2.60;91.20
34153;DHT22;20426;48.372;10.888;2023-04-06T00:39:46;2.60;91.20
34153;DHT22;20426;48.372;10.888;2023-04-06T00:40:17;2.60;91.30
34153;DHT22;20426;48.372;10.888;2023-04-06T00:40:48;2.60;91.20
34153;DHT22;20426;48.372;10.888;2023-04-06T00:41:19;2.60;91.20
34153;DHT22;20426;48.372;10.888;2023-04-06T00:41:51;2.60;91.20
34153;DHT22;20426;48.372;10.888;2023-04-06T00:42:23;2.60;91.30
34153;DHT22;20426;48.372;10.888;2023-04-06T00:42:56;2.60;91.20
34153;DHT22;20426;48.372;10.888;2023-04-06T00:43:27;2.60;91.30
34153;DHT22;20426;48.372;10.888;2023-04-06T00:43:58;2.60;91.40
34153;DHT22;20426;48.372;10.888;2023-04-06T00:44:29;2.60;91.40
34153;DHT22;20426;48.372;10.888;2023-04-06T00:45:01;2.60;91.50
34153;DHT22;20426;48.372;10.888;2023-04-06T00:45:32;2.60;91.50
34153;DHT22;20426;48.372;10.888;2023-04-06T00:46:03;2.60;91.50
34153;DHT22;20426;48.372;10.888;2023-04-06T00:46:34;2.60;91.50
34153;DHT22;20426;48.372;10.888;2023-04-06T00:47:05;2.60;91.40
34153;DHT22;20426;48.372;10.888;2023-04-06T00:47:36;2.60;91.30
34153;DHT22;20426;48.372;10.888;2023-04-06T00:48:07;2.60;91.40
34153;DHT22;20426;48.372;10.888;2023-04-06T00:48:38;2.60;91.40
34153;DHT22;20426;48.372;10.888;2023-04-06T00:49:09;2.60;91.40
34153;DHT22;20426;48.372;10.888;2023-04-06T00:49:40;2.50;91.50
34153;DHT22;20426;48.372;10.888;2023-04-06T00:50:11;2.50;91.50
34153;DHT22;20426;48.372;10.888;2023-04-06T00:50:42;2.50;91.50
34153;DHT22;20426;48.372;10.888;2023-04-06T00:51:13;2.50;91.50
34153;DHT22;20426;48.372;10.888;2023-04-06T00:51:43;2.50;91.50
34153;DHT22;20426;48.372;10.888;2023-04-06T00:52:15;2.50;91.60
34153;DHT22;20426;48.372;10.888;2023-04-06T00:52:46;2.60;91.70
34153;DHT22;20426;48.372;10.888;2023-04-06T00:53:17;2.50;91.60
34153;DHT22;20426;48.372;10.888;2023-04-06T00:53:48;2.50;91.50
34153;DHT22;20426;48.372;10.888;2023-04-06T00:54:18;2.50;91.50
34153;DHT22;20426;48.372;10.888;2023-04-06T00:54:50;2.50;91.60
34153;DHT22;20426;48.372;10.888;2023-04-06T00:55:21;2.50;91.50
34153;DHT22;20426;48.372;10.888;2023-04-06T00:55:52;2.50;91.50
34153;DHT22;20426;48.372;10.888;2023-04-06T00:56:22;2.50;91.50
34153;DHT22;20426;48.372;10.888;2023-04-06T00:56:54;2.50;91.50
34153;DHT22;20426;48.372;10.888;2023-04-06T00:57:25;2.50;91.50
34153;DHT22;20426;48.372;10.888;2023-04-06T00:57:58;2.50;91.50
34153;DHT22;20426;48.372;10.888;2023-04-06T00:58:30;2.50;91.50
34153;DHT22;20426;48.372;10.888;2023-04-06T00:59:00;2.40;91.60
34153;DHT22;20426;48.372;10.888;2023-04-06T00:59:32;2.40;91.60
34153;DHT22;20426;48.372;10.888;2023-04-06T01:00:03;2.40;91.60
34153;DHT22;20426;48.372;10.888;2023-04-06T01:00:34;2.50;91.70
34153;DHT22;20426;48.372;10.888;2023-04-06T01:01:05;2.50;91.70
34153;DHT22;20426;48.372;10.888;2023-04-06T01:01:36;2.40;91.70
34153;DHT22;20426;48.372;10.888;2023-04-06T01:02:08;2.40;91.70
34153;DHT22;20426;48.372;10.888;2023-04-06T01:02:39;2.50;91.70
34153;DHT22;20426;48.372;10.888;2023-04-06T01:03:10;2.50;91.80
34153;DHT22;20426;48.372;10.888;2023-04-06T01:03:41;2.50;91.70
34153;DHT22;20426;48.372;10.888;2023-04-06T01:04:12;2.50;91.60
34153;DHT22;20426;48.372;10.888;2023-04-06T01:04:43;2.50;91.70
34153;DHT22;20426;48.372;10.888;2023-04-06T01:05:14;2.50;91.80
34153;DHT22;20426;48.372;10.888;2023-04-06T01:05:45;2.50;91.80
34153;DHT22;20426;48.372;10.888;2023-04-06T01:06:16;2.50;91.80
34153;DHT22;20426;48.372;10.888;2023-04-06T01:06:47;2.50;91.70
34153;DHT22;20426;48.372;10.888;2023-04-06T01:07:17;2.50;91.80
34153;DHT22;20426;48.372;10.888;2023-04-06T01:07:48;2.50;91.70
34153;DHT22;20426;48.372;10.888;2023-04-06T01:08:19;2.60;91.70
34153;DHT22;20426;48.372;10.888;2023-04-06T01:08:50;2.60;91.60
34153;DHT22;20426;48.372;10.888;2023-04-06T01:09:21;2.60;91.60
34153;DHT22;20426;48.372;10.888;2023-04-06T01:09:55;2.60;91.70
34153;DHT22;20426;48.372;10.888;2023-04-06T01:10:27;2.60;91.70
34153;DHT22;20426;48.372;10.888;2023-04-06T01:10:59;2.60;91.70
34153;DHT22;20426;48.372;10.888;2023-04-06T01:11:31;2.60;91.70
34153;DHT22;20426;48.372;10.888;2023-04-06T01:12:02;2.60;91.70
34153;DHT22;20426;48.372;10.888;2023-04-06T01:12:33;2.60;91.70
34153;DHT22;20426;48.372;10.888;2023-04-06T01:13:04;2.60;91.70
34153;DHT22;20426;48.372;10.888;2023-04-06T01:13:35;2.60;91.70
34153;DHT22;20426;48.372;10.888;2023-04-06T01:14:06;2.60;91.70
34153;DHT22;20426;48.372;10.888;2023-04-06T01:14:37;2.60;91.70
34153;DHT22;20426;48.372;10.888;2023-04-06T01:16:21;2.50;91.70
34153;DHT22;20426;48.372;10.888;2023-04-06T01:16:52;2.50;91.70
34153;DHT22;20426;48.372;10.888;2023-04-06T01:17:23;2.50;91.70
34153;DHT22;20426;48.372;10.888;2023-04-06T01:17:54;2.50;91.70
34153;DHT22;20426;48.372;10.888;2023-04-06T01:18:28;2.50;91.80
34153;DHT22;20426;48.372;10.888;2023-04-06T01:18:59;2.50;91.90
34153;DHT22;20426;48.372;10.888;2023-04-06T01:19:30;2.40;91.80
34153;DHT22;20426;48.372;10.888;2023-04-06T01:20:01;2.50;91.90
34153;DHT22;20426;48.372;10.888;2023-04-06T01:20:31;2.40;91.90
34153;DHT22;20426;48.372;10.888;2023-04-06T01:21:02;2.40;91.90
34153;DHT22;20426;48.372;10.888;2023-04-06T01:21:33;2.40;91.90
34153;DHT22;20426;48.372;10.888;2023-04-06T01:22:04;2.30;91.90
34153;DHT22;20426;48.372;10.888;2023-04-06T01:22:34;2.40;92.00
34153;DHT22;20426;48.372;10.888;2023-04-06T01:23:05;2.30;92.00
34153;DHT22;20426;48.372;10.888;2023-04-06T01:23:36;2.30;92.00
34153;DHT22;20426;48.372;10.888;2023-04-06T01:24:08;2.30;92.00
34153;DHT22;20426;48.372;10.888;2023-04-06T01:24:38;2.30;92.10
34153;DHT22;20426;48.372;10.888;2023-04-06T01:25:10;2.30;92.10
34153;DHT22;20426;48.372;10.888;2023-04-06T01:25:41;2.30;92.20
34153;DHT22;20426;48.372;10.888;2023-04-06T01:26:12;2.30;92.30
34153;DHT22;20426;48.372;10.888;2023-04-06T01:26:44;2.30;92.50
34153;DHT22;20426;48.372;10.888;2023-04-06T01:27:15;2.30;92.50
34153;DHT22;20426;48.372;10.888;2023-04-06T01:27:45;2.30;92.50
34153;DHT22;20426;48.372;10.888;2023-04-06T01:28:16;2.30;92.50
34153;DHT22;20426;48.372;10.888;2023-04-06T01:28:47;2.30;92.40
34153;DHT22;20426;48.372;10.888;2023-04-06T01:29:18;2.20;92.40
34153;DHT22;20426;48.372;10.888;2023-04-06T01:29:48;2.20;92.40
34153;DHT22;20426;48.372;10.888;2023-04-06T01:30:19;2.20;92.40
34153;DHT22;20426;48.372;10.888;2023-04-06T01:30:51;2.20;92.40
34153;DHT22;20426;48.372;10.888;2023-04-06T01:31:22;2.20;92.40
34153;DHT22;20426;48.372;10.888;2023-04-06T01:31:53;2.20;92.40
34153;DHT22;20426;48.372;10.888;2023-04-06T01:32:24;2.20;92.40
34153;DHT22;20426;48.372;10.888;2023-04-06T01:32:55;2.20;92.40
34153;DHT22;20426;48.372;10.888;2023-04-06T01:33:26;2.20;92.50
34153;DHT22;20426;48.372;10.888;2023-04-06T01:33:56;2.20;92.50
34153;DHT22;20426;48.372;10.888;2023-04-06T01:34:27;2.20;92.50
34153;DHT22;20426;48.372;10.888;2023-04-06T01:34:58;2.20;92.50
34153;DHT22;20426;48.372;10.888;2023-04-06T01:35:29;2.20;92.50
34153;DHT22;20426;48.372;10.888;2023-04-06T01:36:00;2.10;92.40
34153;DHT22;20426;48.372;10.888;2023-04-06T01:36:31;2.20;92.50
34153;DHT22;20426;48.372;10.888;2023-04-06T01:37:02;2.10;92.50
34153;DHT22;20426;48.372;10.888;2023-04-06T01:37:33;2.20;92.50
34153;DHT22;20426;48.372;10.888;2023-04-06T01:38:04;2.10;92.50
34153;DHT22;20426;48.372;10.888;2023-04-06T01:38:35;2.20;92.50
34153;DHT22;20426;48.372;10.888;2023-04-06T01:39:06;2.10;92.50
34153;DHT22;20426;48.372;10.888;2023-04-06T01:39:36;2.10;92.50
34153;DHT22;20426;48.372;10.888;2023-04-06T01:40:08;2.10;92.50
34153;DHT22;20426;48.372;10.888;2023-04-06T01:40:39;2.10;92.60
34153;DHT22;20426;48.372;10.888;2023-04-06T01:41:09;2.10;92.60
34153;DHT22;20426;48.372;10.888;2023-04-06T01:41:41;2.10;92.60
34153;DHT22;20426;48.372;10.888;2023-04-06T01:42:11;2.10;92.60
34153;DHT22;20426;48.372;10.888;2023-04-06T01:42:42;2.10;92.60
34153;DHT22;20426;48.372;10.888;2023-04-06T01:43:13;2.10;92.60
34153;DHT22;20426;48.372;10.888;2023-04-06T01:43:44;2.10;92.60
34153;DHT22;20426;48.372;10.888;2023-04-06T01:44:18;2.10;92.60
34153;DHT22;20426;48.372;10.888;2023-04-06T01:44:49;2.10;92.60
34153;DHT22;20426;48.372;10.888;2023-04-06T01:45:20;2.10;92.60
34153;DHT22;20426;48.372;10.888;2023-04-06T01:45:51;2.10;92.60
34153;DHT22;20426;48.372;10.888;2023-04-06T01:46:22;2.10;92.60
34153;DHT22;20426;48.372;10.888;2023-04-06T01:46:53;2.10;92.60
34153;DHT22;20426;48.372;10.888;2023-04-06T01:47:23;2.10;92.60
34153;DHT22;20426;48.372;10.888;2023-04-06T01:47:54;2.10;92.70
34153;DHT22;20426;48.372;10.888;2023-04-06T01:48:26;2.00;92.60
34153;DHT22;20426;48.372;10.888;2023-04-06T01:48:57;2.10;92.70
34153;DHT22;20426;48.372;10.888;2023-04-06T01:49:28;2.10;92.70
34153;DHT22;20426;48.372;10.888;2023-04-06T01:49:58;2.00;92.60
34153;DHT22;20426;48.372;10.888;2023-04-06T01:50:29;2.00;92.70
34153;DHT22;20426;48.372;10.888;2023-04-06T01:51:00;2.10;92.70
34153;DHT22;20426;48.372;10.888;2023-04-06T01:51:31;2.00;92.70
34153;DHT22;20426;48.372;10.888;2023-04-06T01:52:02;2.00;92.70
34153;DHT22;20426;48.372;10.888;2023-04-06T01:52:33;2.00;92.70
34153;DHT22;20426;48.372;10.888;2023-04-06T01:53:04;2.00;92.70
34153;DHT22;20426;48.372;10.888;2023-04-06T01:53:35;2.00;92.70
34153;DHT22;20426;48.372;10.888;2023-04-06T01:54:06;2.00;92.70
34153;DHT22;20426;48.372;10.888;2023-04-06T01:54:36;2.00;92.70
34153;DHT22;20426;48.372;10.888;2023-04-06T01:55:07;2.00;92.80
34153;DHT22;20426;48.372;10.888;2023-04-06T01:55:38;2.00;92.70
34153;DHT22;20426;48.372;10.888;2023-04-06T01:56:09;2.00;92.70
34153;DHT22;20426;48.372;10.888;2023-04-06T01:56:39;2.00;92.80
34153;DHT22;20426;48.372;10.888;2023-04-06T01:57:11;2.00;92.80
34153;DHT22;20426;48.372;10.888;2023-04-06T01:57:41;2.00;92.80
34153;DHT22;20426;48.372;10.888;2023-04-06T01:58:13;2.00;92.80
34153;DHT22;20426;48.372;10.888;2023-04-06T01:58:44;2.00;92.80
34153;DHT22;20426;48.372;10.888;2023-04-06T01:59:14;1.90;92.80
34153;DHT22;20426;48.372;10.888;2023-04-06T01:59:45;1.90;92.80
34153;DHT22;20426;48.372;10.888;2023-04-06T02:00:16;1.90;92.80
34153;DHT22;20426;48.372;10.888;2023-04-06T02:00:47;1.90;92.80
34153;DHT22;20426;48.372;10.888;2023-04-06T02:01:18;1.90;92.90
34153;DHT22;20426;48.372;10.888;2023-04-06T02:01:48;1.90;92.90
34153;DHT22;20426;48.372;10.888;2023-04-06T02:02:19;1.90;92.90
34153;DHT22;20426;48.372;10.888;2023-04-06T02:02:50;1.90;93.00
34153;DHT22;20426;48.372;10.888;2023-04-06T02:03:21;1.80;93.00
34153;DHT22;20426;48.372;10.888;2023-04-06T02:03:51;1.80;93.00
34153;DHT22;20426;48.372;10.888;2023-04-06T02:04:22;1.80;93.00
34153;DHT22;20426;48.372;10.888;2023-04-06T02:04:53;1.80;93.10
34153;DHT22;20426;48.372;10.888;2023-04-06T02:05:25;1.80;93.10
34153;DHT22;20426;48.372;10.888;2023-04-06T02:05:55;1.80;93.10
34153;DHT22;20426;48.372;10.888;2023-04-06T02:06:26;1.80;93.20
34153;DHT22;20426;48.372;10.888;2023-04-06T02:06:57;1.80;93.20
34153;DHT22;20426;48.372;10.888;2023-04-06T02:07:28;1.80;93.20
34153;DHT22;20426;48.372;10.888;2023-04-06T02:07:59;1.80;93.20
34153;DHT22;20426;48.372;10.888;2023-04-06T02:08:30;1.80;93.20
34153;DHT22;20426;48.372;10.888;2023-04-06T02:09:01;1.80;93.20
34153;DHT22;20426;48.372;10.888;2023-04-06T02:09:32;1.80;93.20
34153;DHT22;20426;48.372;10.888;2023-04-06T02:10:03;1.80;93.30
34153;DHT22;20426;48.372;10.888;2023-04-06T02:10:34;1.80;93.30
34153;DHT22;20426;48.372;10.888;2023-04-06T02:11:05;1.70;93.40
34153;DHT22;20426;48.372;10.888;2023-04-06T02:11:36;1.70;93.30
34153;DHT22;20426;48.372;10.888;2023-04-06T02:12:07;1.70;93.40
34153;DHT22;20426;48.372;10.888;2023-04-06T02:12:38;1.70;93.40
34153;DHT22;20426;48.372;10.888;2023-04-06T02:13:08;1.70;93.40
34153;DHT22;20426;48.372;10.888;2023-04-06T02:13:39;1.80;93.40
34153;DHT22;20426;48.372;10.888;2023-04-06T02:14:10;1.80;93.40
34153;DHT22;20426;48.372;10.888;2023-04-06T02:14:41;1.80;93.50
34153;DHT22;20426;48.372;10.888;2023-04-06T02:15:12;1.80;93.50
34153;DHT22;20426;48.372;10.888;2023-04-06T02:15:43;1.80;93.50
34153;DHT22;20426;48.372;10.888;2023-04-06T02:16:14;1.80;93.40
34153;DHT22;20426;48.372;10.888;2023-04-06T02:16:46;1.80;93.40
34153;DHT22;20426;48.372;10.888;2023-04-06T02:17:17;1.80;93.30
34153;DHT22;20426;48.372;10.888;2023-04-06T02:17:48;1.80;93.40
34153;DHT22;20426;48.372;10.888;2023-04-06T02:18:18;1.80;93.30
34153;DHT22;20426;48.372;10.888;2023-04-06T02:18:49;1.80;93.30
34153;DHT22;20426;48.372;10.888;2023-04-06T02:19:21;1.80;93.40
34153;DHT22;20426;48.372;10.888;2023-04-06T02:19:52;1.80;93.40
34153;DHT22;20426;48.372;10.888;2023-04-06T02:20:23;1.80;93.30
34153;DHT22;20426;48.372;10.888;2023-04-06T02:20:54;1.80;93.40
34153;DHT22;20426;48.372;10.888;2023-04-06T02:21:25;1.80;93.40
34153;DHT22;20426;48.372;10.888;2023-04-06T02:21:55;1.80;93.50
34153;DHT22;20426;48.372;10.888;2023-04-06T02:22:27;1.80;93.40
34153;DHT22;20426;48.372;10.888;2023-04-06T02:22:59;1.80;93.50
34153;DHT22;20426;48.372;10.888;2023-04-06T02:23:30;1.80;93.50
34153;DHT22;20426;48.372;10.888;2023-04-06T02:24:01;1.80;93.40
34153;DHT22;20426;48.372;10.888;2023-04-06T02:24:32;1.80;93.50
34153;DHT22;20426;48.372;10.888;2023-04-06T02:25:03;1.80;93.50
34153;DHT22;20426;48.372;10.888;2023-04-06T02:25:34;1.80;93.50
34153;DHT22;20426;48.372;10.888;2023-04-06T02:26:05;1.80;93.50
34153;DHT22;20426;48.372;10.888;2023-04-06T02:26:36;1.80;93.40
34153;DHT22;20426;48.372;10.888;2023-04-06T02:27:06;1.80;93.40
34153;DHT22;20426;48.372;10.888;2023-04-06T02:27:37;1.90;93.50
34153;DHT22;20426;48.372;10.888;2023-04-06T02:28:08;1.90;93.50
34153;DHT22;20426;48.372;10.888;2023-04-06T02:28:39;1.90;93.60
34153;DHT22;20426;48.372;10.888;2023-04-06T02:29:10;1.80;93.50
34153;DHT22;20426;48.372;10.888;2023-04-06T02:29:41;1.80;93.50
34153;DHT22;20426;48.372;10.888;2023-04-06T02:30:12;1.80;93.50
34153;DHT22;20426;48.372;10.888;2023-04-06T02:30:42;1.80;93.50
34153;DHT22;20426;48.372;10.888;2023-04-06T02:31:13;1.80;93.50
34153;DHT22;20426;48.372;10.888;2023-04-06T02:31:46;1.80;93.50
34153;DHT22;20426;48.372;10.888;2023-04-06T02:32:16;1.80;93.50
34153;DHT22;20426;48.372;10.888;2023-04-06T02:32:47;1.80;93.50
34153;DHT22;20426;48.372;10.888;2023-04-06T02:33:18;1.80;93.50
34153;DHT22;20426;48.372;10.888;2023-04-06T02:33:49;1.80;93.50
34153;DHT22;20426;48.372;10.888;2023-04-06T02:34:19;1.70;93.50
34153;DHT22;20426;48.372;10.888;2023-04-06T02:34:50;1.70;93.60
34153;DHT22;20426;48.372;10.888;2023-04-06T02:35:21;1.70;93.60
34153;DHT22;20426;48.372;10.888;2023-04-06T02:35:52;1.70;93.60
34153;DHT22;20426;48.372;10.888;2023-04-06T02:36:23;1.70;93.70
34153;DHT22;20426;48.372;10.888;2023-04-06T02:36:53;1.70;93.70
34153;DHT22;20426;48.372;10.888;2023-04-06T02:37:24;1.70;93.70
34153;DHT22;20426;48.372;10.888;2023-04-06T02:37:55;1.60;93.70
34153;DHT22;20426;48.372;10.888;2023-04-06T02:38:26;1.60;93.80
34153;DHT22;20426;48.372;10.888;2023-04-06T02:38:57;1.60;93.90
34153;DHT22;20426;48.372;10.888;2023-04-06T02:39:28;1.60;94.00
34153;DHT22;20426;48.372;10.888;2023-04-06T02:39:58;1.60;94.00
34153;DHT22;20426;48.372;10.888;2023-04-06T02:40:29;1.60;94.00
34153;DHT22;20426;48.372;10.888;2023-04-06T02:41:00;1.60;94.00
34153;DHT22;20426;48.372;10.888;2023-04-06T02:41:31;1.60;93.90
34153;DHT22;20426;48.372;10.888;2023-04-06T02:42:01;1.60;93.90
34153;DHT22;20426;48.372;10.888;2023-04-06T02:42:32;1.60;93.90
34153;DHT22;20426;48.372;10.888;2023-04-06T02:43:03;1.50;93.90
34153;DHT22;20426;48.372;10.888;2023-04-06T02:43:34;1.60;93.90
34153;DHT22;20426;48.372;10.888;2023-04-06T02:44:08;1.50;93.80
34153;DHT22;20426;48.372;10.888;2023-04-06T02:44:39;1.60;93.90
34153;DHT22;20426;48.372;10.888;2023-04-06T02:45:10;1.50;93.80
34153;DHT22;20426;48.372;10.888;2023-04-06T02:45:41;1.60;93.90
34153;DHT22;20426;48.372;10.888;2023-04-06T02:46:11;1.60;93.90
34153;DHT22;20426;48.372;10.888;2023-04-06T02:46:42;1.50;93.90
34153;DHT22;20426;48.372;10.888;2023-04-06T02:47:13;1.50;93.90
34153;DHT22;20426;48.372;10.888;2023-04-06T02:47:44;1.50;93.90
34153;DHT22;20426;48.372;10.888;2023-04-06T02:48:15;1.50;94.00
34153;DHT22;20426;48.372;10.888;2023-04-06T02:48:46;1.50;94.00
34153;DHT22;20426;48.372;10.888;2023-04-06T02:49:17;1.50;94.10
34153;DHT22;20426;48.372;10.888;2023-04-06T02:49:47;1.40;94.00
34153;DHT22;20426;48.372;10.888;2023-04-06T02:50:18;1.50;94.10
34153;DHT22;20426;48.372;10.888;2023-04-06T02:50:49;1.40;94.20
34153;DHT22;20426;48.372;10.888;2023-04-06T02:51:20;1.40;94.20
34153;DHT22;20426;48.372;10.888;2023-04-06T02:51:51;1.40;94.30
34153;DHT22;20426;48.372;10.888;2023-04-06T02:52:21;1.40;94.20
34153;DHT22;20426;48.372;10.888;2023-04-06T02:52:53;1.50;94.30
34153;DHT22;20426;48.372;10.888;2023-04-06T02:53:23;1.40;94.30
34153;DHT22;20426;48.372;10.888;2023-04-06T02:53:54;1.40;94.30
34153;DHT22;20426;48.372;10.888;2023-04-06T02:54:25;1.40;94.30
34153;DHT22;20426;48.372;10.888;2023-04-06T02:54:56;1.40;94.30
34153;DHT22;20426;48.372;10.888;2023-04-06T02:55:26;1.40;94.30
34153;DHT22;20426;48.372;10.888;2023-04-06T02:55:57;1.40;94.30
34153;DHT22;20426;48.372;10.888;2023-04-06T02:56:28;1.40;94.30
34153;DHT22;20426;48.372;10.888;2023-04-06T02:56:59;1.40;94.30
34153;DHT22;20426;48.372;10.888;2023-04-06T02:57:29;1.40;94.40
34153;DHT22;20426;48.372;10.888;2023-04-06T02:58:00;1.40;94.40
34153;DHT22;20426;48.372;10.888;2023-04-06T02:58:31;1.40;94.40
34153;DHT22;20426;48.372;10.888;2023-04-06T02:59:03;1.40;94.40
34153;DHT22;20426;48.372;10.888;2023-04-06T02:59:33;1.40;94.40
34153;DHT22;20426;48.372;10.888;2023-04-06T03:00:05;1.40;94.70
34153;DHT22;20426;48.372;10.888;2023-04-06T03:00:42;1.40;94.50
34153;DHT22;20426;48.372;10.888;2023-04-06T03:01:13;1.40;94.50
34153;DHT22;20426;48.372;10.888;2023-04-06T03:01:47;1.40;94.50
34153;DHT22;20426;48.372;10.888;2023-04-06T03:02:20;1.40;94.40
34153;DHT22;20426;48.372;10.888;2023-04-06T03:02:51;1.40;94.40
34153;DHT22;20426;48.372;10.888;2023-04-06T03:03:22;1.40;94.40
34153;DHT22;20426;48.372;10.888;2023-04-06T03:03:53;1.40;94.40
34153;DHT22;20426;48.372;10.888;2023-04-06T03:04:23;1.40;94.40
34153;DHT22;20426;48.372;10.888;2023-04-06T03:04:55;1.40;94.40
34153;DHT22;20426;48.372;10.888;2023-04-06T03:05:26;1.40;94.40
34153;DHT22;20426;48.372;10.888;2023-04-06T03:05:57;1.40;94.50
34153;DHT22;20426;48.372;10.888;2023-04-06T03:06:29;1.40;94.50
34153;DHT22;20426;48.372;10.888;2023-04-06T03:07:00;1.40;94.40
34153;DHT22;20426;48.372;10.888;2023-04-06T03:07:31;1.40;94.70
34153;DHT22;20426;48.372;10.888;2023-04-06T03:08:02;1.40;94.50
34153;DHT22;20426;48.372;10.888;2023-04-06T03:08:33;1.40;94.50
34153;DHT22;20426;48.372;10.888;2023-04-06T03:09:05;1.40;94.50
34153;DHT22;20426;48.372;10.888;2023-04-06T03:09:37;1.40;94.50
34153;DHT22;20426;48.372;10.888;2023-04-06T03:10:09;1.40;94.60
34153;DHT22;20426;48.372;10.888;2023-04-06T03:10:40;1.40;94.60
34153;DHT22;20426;48.372;10.888;2023-04-06T03:11:10;1.40;94.50
34153;DHT22;20426;48.372;10.888;2023-04-06T03:11:41;1.40;94.50
34153;DHT22;20426;48.372;10.888;2023-04-06T03:12:12;1.40;94.50
34153;DHT22;20426;48.372;10.888;2023-04-06T03:12:43;1.40;94.50
34153;DHT22;20426;48.372;10.888;2023-04-06T03:13:13;1.40;94.50
34153;DHT22;20426;48.372;10.888;2023-04-06T03:13:45;1.40;94.50
34153;DHT22;20426;48.372;10.888;2023-04-06T03:14:15;1.40;94.50
34153;DHT22;20426;48.372;10.888;2023-04-06T03:14:48;1.40;94.50
34153;DHT22;20426;48.372;10.888;2023-04-06T03:15:19;1.40;94.50
34153;DHT22;20426;48.372;10.888;2023-04-06T03:15:49;1.40;94.50
34153;DHT22;20426;48.372;10.888;2023-04-06T03:16:20;1.40;94.50
34153;DHT22;20426;48.372;10.888;2023-04-06T03:16:51;1.40;94.60